Terminal Aerodrome Forecast
Issued by NWS Sterling, VA

Current Version | Previous Version | Graphics & Text | Print | Product List | Glossary On
Versions: 1 2 3 4 5 6 7 8 9 10 11 12 13 14 15 16 17
000
FTUS41 KLWX 182300
TAFMRB
TAF
KMRB 182322Z 1900/1924 14005KT P6SM OVC050
     FM190500 VRB03KT P6SM BKN025
     FM190800 VRB03KT P6SM BKN015
     FM191300 04004KT P6SM SCT015 BKN025
     FM191500 06005KT P6SM SCT015 BKN050
     FM192100 12007KT P6SM BKN050=

USA.gov is the U.S. government's official web portal to all federal, state and local government web resources and services.